Terminal Aerodrome Forecast
Issued by NWS Milwaukee/Sullivan, WI

Home | Current Version | Previous Version | Text Only | Print | Product List | Glossary On
Versions: 1 2 3 4 5 6 7 8 9 10 11 12 13 14 15 16 17 18 19 20 21 22 23 24 25 26 27
000
FTUS43 KMKX 211445 AAA
TAFMKE
TAF AMD
KMKE 211445Z 2115/2218 23011KT P6SM SCT120 BKN200
     FM211600 29015G24KT P6SM SCT035 BKN120
      TEMPO 2118/2122 BKN035
     FM212200 31013G21KT P6SM SCT045
     FM220300 32010KT P6SM SKC
     FM221600 28006KT P6SM FEW250=

USA.gov is the U.S. government's official web portal to all federal, state and local government web resources and services.